sensor_id;sensor_type;location;lat;lon;timestamp;pressure;altitude;pressure_sealevel;temperature
65316;BMP280;51920;53.952;10.292;2024-03-08T00:00:45;102035.25;;;1.54
65316;BMP280;51920;53.952;10.292;2024-03-08T00:03:12;102049.72;;;1.48
65316;BMP280;51920;53.952;10.292;2024-03-08T00:05:43;102044.41;;;1.43
65316;BMP280;51920;53.952;10.292;2024-03-08T00:08:09;102044.72;;;1.36
65316;BMP280;51920;53.952;10.292;2024-03-08T00:10:36;102038.38;;;1.32
65316;BMP280;51920;53.952;10.292;2024-03-08T00:13:05;102035.44;;;1.33
65316;BMP280;51920;53.952;10.292;2024-03-08T00:15:33;102033.59;;;1.29
65316;BMP280;51920;53.952;10.292;2024-03-08T00:18:01;102040.84;;;1.23
65316;BMP280;51920;53.952;10.292;2024-03-08T00:20:28;102032.56;;;1.20
65316;BMP280;51920;53.952;10.292;2024-03-08T00:22:55;102033.97;;;1.12
65316;BMP280;51920;53.952;10.292;2024-03-08T00:25:24;102033.91;;;1.17
65316;BMP280;51920;53.952;10.292;2024-03-08T00:27:51;102033.38;;;1.15
65316;BMP280;51920;53.952;10.292;2024-03-08T00:30:22;102035.06;;;1.06
65316;BMP280;51920;53.952;10.292;2024-03-08T00:32:50;102035.06;;;1.06
65316;BMP280;51920;53.952;10.292;2024-03-08T00:35:17;102024.63;;;1.09
65316;BMP280;51920;53.952;10.292;2024-03-08T00:37:44;102027.59;;;1.03
65316;BMP280;51920;53.952;10.292;2024-03-08T00:40:14;102034.81;;;1.02
65316;BMP280;51920;53.952;10.292;2024-03-08T00:42:41;102031.63;;;1.00
65316;BMP280;51920;53.952;10.292;2024-03-08T00:45:11;102023.88;;;0.99
65316;BMP280;51920;53.952;10.292;2024-03-08T00:47:38;102020.69;;;0.97
65316;BMP280;51920;53.952;10.292;2024-03-08T00:50:05;102022.53;;;1.01
65316;BMP280;51920;53.952;10.292;2024-03-08T00:52:32;102017.19;;;1.01
65316;BMP280;51920;53.952;10.292;2024-03-08T00:55:01;102013.72;;;1.01
65316;BMP280;51920;53.952;10.292;2024-03-08T00:57:28;102012.94;;;1.00
65316;BMP280;51920;53.952;10.292;2024-03-08T00:59:56;102017.41;;;1.10
65316;BMP280;51920;53.952;10.292;2024-03-08T01:02:25;102004.00;;;1.20
65316;BMP280;51920;53.952;10.292;2024-03-08T01:04:52;102006.72;;;1.15
65316;BMP280;51920;53.952;10.292;2024-03-08T01:07:20;102000.31;;;1.16
65316;BMP280;51920;53.952;10.292;2024-03-08T01:09:46;102001.38;;;1.10
65316;BMP280;51920;53.952;10.292;2024-03-08T01:12:13;101997.66;;;1.11
65316;BMP280;51920;53.952;10.292;2024-03-08T01:14:41;102005.13;;;1.14
65316;BMP280;51920;53.952;10.292;2024-03-08T01:17:08;102002.47;;;1.14
65316;BMP280;51920;53.952;10.292;2024-03-08T01:19:36;101993.97;;;1.07
65316;BMP280;51920;53.952;10.292;2024-03-08T01:22:03;101985.66;;;1.08
65316;BMP280;51920;53.952;10.292;2024-03-08T01:24:30;101986.19;;;1.16
65316;BMP280;51920;53.952;10.292;2024-03-08T01:26:57;101990.94;;;1.19
65316;BMP280;51920;53.952;10.292;2024-03-08T01:29:24;101976.72;;;1.33
65316;BMP280;51920;53.952;10.292;2024-03-08T01:31:51;101975.78;;;1.14
65316;BMP280;51920;53.952;10.292;2024-03-08T01:34:19;101976.78;;;1.23
65316;BMP280;51920;53.952;10.292;2024-03-08T01:36:46;101965.13;;;1.09
65316;BMP280;51920;53.952;10.292;2024-03-08T01:39:13;101969.81;;;1.22
65316;BMP280;51920;53.952;10.292;2024-03-08T01:41:40;101964.94;;;0.95
65316;BMP280;51920;53.952;10.292;2024-03-08T01:44:07;101961.25;;;0.86
65316;BMP280;51920;53.952;10.292;2024-03-08T01:46:36;101958.06;;;0.84
65316;BMP280;51920;53.952;10.292;2024-03-08T01:49:03;101957.91;;;1.09
65316;BMP280;51920;53.952;10.292;2024-03-08T01:51:31;101951.84;;;0.99
65316;BMP280;51920;53.952;10.292;2024-03-08T01:53:58;101943.28;;;1.02
65316;BMP280;51920;53.952;10.292;2024-03-08T01:56:28;101942.22;;;0.98
65316;BMP280;51920;53.952;10.292;2024-03-08T01:58:55;101936.66;;;0.94
65316;BMP280;51920;53.952;10.292;2024-03-08T02:01:22;101928.44;;;0.85
65316;BMP280;51920;53.952;10.292;2024-03-08T02:03:50;101927.28;;;1.02
65316;BMP280;51920;53.952;10.292;2024-03-08T02:06:17;101927.06;;;0.93
65316;BMP280;51920;53.952;10.292;2024-03-08T02:08:45;101926.69;;;1.10
65316;BMP280;51920;53.952;10.292;2024-03-08T02:11:12;101927.06;;;0.93
65316;BMP280;51920;53.952;10.292;2024-03-08T02:13:39;101918.03;;;0.89
65316;BMP280;51920;53.952;10.292;2024-03-08T02:16:06;101924.16;;;0.89
65316;BMP280;51920;53.952;10.292;2024-03-08T02:18:35;101923.66;;;0.82
65316;BMP280;51920;53.952;10.292;2024-03-08T02:21:04;101921.28;;;0.81
65316;BMP280;51920;53.952;10.292;2024-03-08T02:23:32;101915.16;;;0.80
65316;BMP280;51920;53.952;10.292;2024-03-08T02:25:59;101913.53;;;0.79
65316;BMP280;51920;53.952;10.292;2024-03-08T02:28:26;101910.69;;;0.65
65316;BMP280;51920;53.952;10.292;2024-03-08T02:30:53;101914.09;;;0.76
65316;BMP280;51920;53.952;10.292;2024-03-08T02:33:24;101914.09;;;0.76
65316;BMP280;51920;53.952;10.292;2024-03-08T02:35:51;101902.94;;;0.69
65316;BMP280;51920;53.952;10.292;2024-03-08T02:38:20;101903.19;;;0.67
65316;BMP280;51920;53.952;10.292;2024-03-08T02:40:49;101905.06;;;0.72
65316;BMP280;51920;53.952;10.292;2024-03-08T02:43:17;101898.97;;;0.66
65316;BMP280;51920;53.952;10.292;2024-03-08T02:45:45;101899.78;;;0.62
65316;BMP280;51920;53.952;10.292;2024-03-08T02:48:13;101902.19;;;0.58
65316;BMP280;51920;53.952;10.292;2024-03-08T02:50:40;101899.56;;;0.53
65316;BMP280;51920;53.952;10.292;2024-03-08T02:53:09;101895.81;;;0.54
65316;BMP280;51920;53.952;10.292;2024-03-08T02:55:40;101895.28;;;0.57
65316;BMP280;51920;53.952;10.292;2024-03-08T02:58:08;101893.91;;;0.60
65316;BMP280;51920;53.952;10.292;2024-03-08T03:00:37;101893.69;;;0.56
65316;BMP280;51920;53.952;10.292;2024-03-08T03:03:05;101884.41;;;0.43
65316;BMP280;51920;53.952;10.292;2024-03-08T03:05:33;101890.03;;;0.42
65316;BMP280;51920;53.952;10.292;2024-03-08T03:08:03;101895.31;;;0.47
65316;BMP280;51920;53.952;10.292;2024-03-08T03:10:35;101887.84;;;0.49
65316;BMP280;51920;53.952;10.292;2024-03-08T03:13:03;101890.53;;;0.44
65316;BMP280;51920;53.952;10.292;2024-03-08T03:15:31;101888.63;;;0.49
65316;BMP280;51920;53.952;10.292;2024-03-08T03:17:58;101886.00;;;0.44
65316;BMP280;51920;53.952;10.292;2024-03-08T03:20:25;101889.22;;;0.41
65316;BMP280;51920;53.952;10.292;2024-03-08T03:22:59;101885.22;;;0.44
65316;BMP280;51920;53.952;10.292;2024-03-08T03:25:28;101890.28;;;0.40
65316;BMP280;51920;53.952;10.292;2024-03-08T03:28:02;101887.09;;;0.43
65316;BMP280;51920;53.952;10.292;2024-03-08T03:30:30;101881.75;;;0.43
65316;BMP280;51920;53.952;10.292;2024-03-08T03:33:00;101883.81;;;0.51
65316;BMP280;51920;53.952;10.292;2024-03-08T03:35:28;101877.19;;;0.49
65316;BMP280;51920;53.952;10.292;2024-03-08T03:37:58;101874.00;;;0.47
65316;BMP280;51920;53.952;10.292;2024-03-08T03:40:33;101874.50;;;0.54
65316;BMP280;51920;53.952;10.292;2024-03-08T03:43:01;101872.09;;;0.52
65316;BMP280;51920;53.952;10.292;2024-03-08T03:45:29;101874.50;;;0.54
65316;BMP280;51920;53.952;10.292;2024-03-08T03:48:05;101873.09;;;0.62
65316;BMP280;51920;53.952;10.292;2024-03-08T03:50:33;101870.41;;;0.67
65316;BMP280;51920;53.952;10.292;2024-03-08T03:53:03;101874.75;;;0.52
65316;BMP280;51920;53.952;10.292;2024-03-08T03:55:31;101878.97;;;0.64
65316;BMP280;51920;53.952;10.292;2024-03-08T03:57:58;101870.97;;;0.58
65316;BMP280;51920;53.952;10.292;2024-03-08T04:00:27;101867.25;;;0.60
65316;BMP280;51920;53.952;10.292;2024-03-08T04:02:54;101870.44;;;0.62
65316;BMP280;51920;53.952;10.292;2024-03-08T04:05:26;101869.59;;;0.71
65316;BMP280;51920;53.952;10.292;2024-03-08T04:07:53;101869.91;;;0.65
65316;BMP280;51920;53.952;10.292;2024-03-08T04:10:20;101868.91;;;0.55
65316;BMP280;51920;53.952;10.292;2024-03-08T04:12:47;101858.78;;;0.52
65316;BMP280;51920;53.952;10.292;2024-03-08T04:15:14;101861.69;;;0.56
65316;BMP280;51920;53.952;10.292;2024-03-08T04:17:42;101865.75;;;0.48
65316;BMP280;51920;53.952;10.292;2024-03-08T04:20:09;101871.06;;;0.48
65316;BMP280;51920;53.952;10.292;2024-03-08T04:22:37;101867.88;;;0.46
65316;BMP280;51920;53.952;10.292;2024-03-08T04:25:05;101866.03;;;0.42
65316;BMP280;51920;53.952;10.292;2024-03-08T04:27:33;101871.59;;;0.45
65316;BMP280;51920;53.952;10.292;2024-03-08T04:30:03;101869.47;;;0.47
65316;BMP280;51920;53.952;10.292;2024-03-08T04:32:30;101860.69;;;0.42
65316;BMP280;51920;53.952;10.292;2024-03-08T04:34:59;101867.34;;;0.39
65316;BMP280;51920;53.952;10.292;2024-03-08T04:37:28;101859.66;;;0.37
65316;BMP280;51920;53.952;10.292;2024-03-08T04:39:56;101861.31;;;0.73
65316;BMP280;51920;53.952;10.292;2024-03-08T04:42:24;101862.72;;;0.60
65316;BMP280;51920;53.952;10.292;2024-03-08T04:44:52;101848.03;;;0.68
65316;BMP280;51920;53.952;10.292;2024-03-08T04:47:20;101853.84;;;0.75
65316;BMP280;51920;53.952;10.292;2024-03-08T04:49:47;101855.03;;;0.93
65316;BMP280;51920;53.952;10.292;2024-03-08T04:52:14;101851.00;;;0.95
65316;BMP280;51920;53.952;10.292;2024-03-08T04:54:41;101848.91;;;0.92
65316;BMP280;51920;53.952;10.292;2024-03-08T04:57:08;101858.69;;;1.02
65316;BMP280;51920;53.952;10.292;2024-03-08T04:59:35;101851.81;;;0.96
65316;BMP280;51920;53.952;10.292;2024-03-08T05:02:03;101849.91;;;1.02
65316;BMP280;51920;53.952;10.292;2024-03-08T05:04:30;101854.41;;;1.06
65316;BMP280;51920;53.952;10.292;2024-03-08T05:06:57;101850.69;;;1.02
65316;BMP280;51920;53.952;10.292;2024-03-08T05:09:24;101850.66;;;1.07
65316;BMP280;51920;53.952;10.292;2024-03-08T05:11:51;101847.44;;;1.10
65316;BMP280;51920;53.952;10.292;2024-03-08T05:14:18;101851.13;;;1.14
65316;BMP280;51920;53.952;10.292;2024-03-08T05:16:47;101840.47;;;1.14
65316;BMP280;51920;53.952;10.292;2024-03-08T05:19:17;101844.50;;;1.12
65316;BMP280;51920;53.952;10.292;2024-03-08T05:21:45;101849.88;;;1.07
65316;BMP280;51920;53.952;10.292;2024-03-08T05:24:12;101844.44;;;1.17
65316;BMP280;51920;53.952;10.292;2024-03-08T05:26:42;101839.94;;;1.12
65316;BMP280;51920;53.952;10.292;2024-03-08T05:29:09;101838.66;;;1.05
65316;BMP280;51920;53.952;10.292;2024-03-08T05:31:48;101839.94;;;1.12
65316;BMP280;51920;53.952;10.292;2024-03-08T05:34:16;101837.97;;;1.23
65316;BMP280;51920;53.952;10.292;2024-03-08T05:36:43;101834.81;;;1.21
65316;BMP280;51920;53.952;10.292;2024-03-08T05:39:12;101842.31;;;1.19
65316;BMP280;51920;53.952;10.292;2024-03-08T05:41:39;101839.00;;;1.27
65316;BMP280;51920;53.952;10.292;2024-03-08T05:44:07;101839.66;;;1.14
65316;BMP280;51920;53.952;10.292;2024-03-08T05:46:35;101832.13;;;1.21
65316;BMP280;51920;53.952;10.292;2024-03-08T05:49:06;101837.97;;;1.23
65316;BMP280;51920;53.952;10.292;2024-03-08T05:51:34;101835.88;;;1.20
65316;BMP280;51920;53.952;10.292;2024-03-08T05:54:05;101828.41;;;1.17
65316;BMP280;51920;53.952;10.292;2024-03-08T05:56:33;101828.88;;;1.24
65316;BMP280;51920;53.952;10.292;2024-03-08T05:59:00;101833.38;;;1.29
65316;BMP280;51920;53.952;10.292;2024-03-08T06:01:28;101824.56;;;1.33
65316;BMP280;51920;53.952;10.292;2024-03-08T06:03:56;101822.72;;;1.29
65316;BMP280;51920;53.952;10.292;2024-03-08T06:06:24;101822.94;;;1.32
65316;BMP280;51920;53.952;10.292;2024-03-08T06:08:51;101818.41;;;1.33
65316;BMP280;51920;53.952;10.292;2024-03-08T06:11:19;101822.34;;;1.36
65316;BMP280;51920;53.952;10.292;2024-03-08T06:13:47;101829.19;;;1.47
65316;BMP280;51920;53.952;10.292;2024-03-08T06:16:14;101831.34;;;1.45
65316;BMP280;51920;53.952;10.292;2024-03-08T06:18:41;101832.47;;;1.39
65316;BMP280;51920;53.952;10.292;2024-03-08T06:21:08;101833.53;;;1.38
65316;BMP280;51920;53.952;10.292;2024-03-08T06:23:39;101834.84;;;1.40
65316;BMP280;51920;53.952;10.292;2024-03-08T06:26:06;101830.81;;;1.67
65316;BMP280;51920;53.952;10.292;2024-03-08T06:28:34;101833.81;;;1.65
65316;BMP280;51920;53.952;10.292;2024-03-08T06:31:03;101829.59;;;1.59
65316;BMP280;51920;53.952;10.292;2024-03-08T06:33:31;101828.06;;;1.53
65316;BMP280;51920;53.952;10.292;2024-03-08T06:35:59;101829.91;;;1.52
65316;BMP280;51920;53.952;10.292;2024-03-08T06:38:26;101831.84;;;1.47
65316;BMP280;51920;53.952;10.292;2024-03-08T06:40:53;101832.34;;;1.49
65316;BMP280;51920;53.952;10.292;2024-03-08T06:43:21;101823.56;;;1.48
65316;BMP280;51920;53.952;10.292;2024-03-08T06:45:48;101826.50;;;1.47
65316;BMP280;51920;53.952;10.292;2024-03-08T06:48:19;101816.63;;;1.47
65316;BMP280;51920;53.952;10.292;2024-03-08T06:50:47;101821.16;;;1.47
65316;BMP280;51920;53.952;10.292;2024-03-08T06:53:14;101821.22;;;1.42
65316;BMP280;51920;53.952;10.292;2024-03-08T06:55:42;101824.69;;;1.42
65316;BMP280;51920;53.952;10.292;2024-03-08T06:58:11;101824.38;;;1.44
65316;BMP280;51920;53.952;10.292;2024-03-08T07:00:38;101825.09;;;1.30
65316;BMP280;51920;53.952;10.292;2024-03-08T07:03:08;101820.31;;;1.27
65316;BMP280;51920;53.952;10.292;2024-03-08T07:05:38;101820.78;;;1.34
65316;BMP280;51920;53.952;10.292;2024-03-08T07:08:07;101825.50;;;1.43
65316;BMP280;51920;53.952;10.292;2024-03-08T07:10:34;101817.53;;;1.38
65316;BMP280;51920;53.952;10.292;2024-03-08T07:13:02;101827.22;;;1.33
65316;BMP280;51920;53.952;10.292;2024-03-08T07:15:29;101829.72;;;1.44
65316;BMP280;51920;53.952;10.292;2024-03-08T07:17:56;101828.28;;;1.32
65316;BMP280;51920;53.952;10.292;2024-03-08T07:20:23;101826.16;;;1.29
65316;BMP280;51920;53.952;10.292;2024-03-08T07:22:53;101829.38;;;1.31
65316;BMP280;51920;53.952;10.292;2024-03-08T07:25:20;101832.75;;;1.37
65316;BMP280;51920;53.952;10.292;2024-03-08T07:27:48;101829.19;;;1.47
65316;BMP280;51920;53.952;10.292;2024-03-08T07:30:15;101830.19;;;1.51
65316;BMP280;51920;53.952;10.292;2024-03-08T07:33:01;101832.31;;;1.54
65316;BMP280;51920;53.952;10.292;2024-03-08T07:35:29;101823.31;;;1.45
65316;BMP280;51920;53.952;10.292;2024-03-08T07:37:57;101822.31;;;1.41
65316;BMP280;51920;53.952;10.292;2024-03-08T07:40:26;101820.56;;;1.55
65316;BMP280;51920;53.952;10.292;2024-03-08T07:42:54;101819.22;;;1.52
65316;BMP280;51920;53.952;10.292;2024-03-08T07:45:21;101825.56;;;1.62
65316;BMP280;51920;53.952;10.292;2024-03-08T07:47:48;101825.25;;;1.63
65316;BMP280;51920;53.952;10.292;2024-03-08T07:50:17;101817.69;;;1.70
65316;BMP280;51920;53.952;10.292;2024-03-08T07:52:46;101818.69;;;1.80
65316;BMP280;51920;53.952;10.292;2024-03-08T07:55:13;101815.56;;;1.91
65316;BMP280;51920;53.952;10.292;2024-03-08T07:57:40;101820.56;;;2.36
65316;BMP280;51920;53.952;10.292;2024-03-08T08:00:07;101820.06;;;2.53
65316;BMP280;51920;53.952;10.292;2024-03-08T08:02:35;101817.09;;;2.55
65316;BMP280;51920;53.952;10.292;2024-03-08T08:05:03;101823.91;;;2.47
65316;BMP280;51920;53.952;10.292;2024-03-08T08:07:30;101818.41;;;2.38
65316;BMP280;51920;53.952;10.292;2024-03-08T08:09:57;101821.16;;;2.33
65316;BMP280;51920;53.952;10.292;2024-03-08T08:12:24;101823.22;;;2.36
65316;BMP280;51920;53.952;10.292;2024-03-08T08:14:52;101821.16;;;2.33
65316;BMP280;51920;53.952;10.292;2024-03-08T08:17:19;101828.22;;;2.62
65316;BMP280;51920;53.952;10.292;2024-03-08T08:19:46;101827.16;;;3.37
65316;BMP280;51920;53.952;10.292;2024-03-08T08:22:14;101825.53;;;3.92
65316;BMP280;51920;53.952;10.292;2024-03-08T08:24:41;101835.09;;;3.84
65316;BMP280;51920;53.952;10.292;2024-03-08T08:27:07;101825.38;;;3.60
65316;BMP280;51920;53.952;10.292;2024-03-08T08:29:36;101827.34;;;3.96
65316;BMP280;51920;53.952;10.292;2024-03-08T08:32:03;101834.91;;;4.17
65316;BMP280;51920;53.952;10.292;2024-03-08T08:34:30;101826.66;;;4.13
65316;BMP280;51920;53.952;10.292;2024-03-08T08:36:58;101828.47;;;4.18
65316;BMP280;51920;53.952;10.292;2024-03-08T08:39:25;101812.91;;;4.51
65316;BMP280;51920;53.952;10.292;2024-03-08T08:41:52;101823.16;;;4.80
65316;BMP280;51920;53.952;10.292;2024-03-08T08:44:20;101821.69;;;4.97
65316;BMP280;51920;53.952;10.292;2024-03-08T08:46:47;101817.88;;;4.66
65316;BMP280;51920;53.952;10.292;2024-03-08T08:49:14;101819.78;;;4.66
65316;BMP280;51920;53.952;10.292;2024-03-08T08:51:50;101815.50;;;4.65
65316;BMP280;51920;53.952;10.292;2024-03-08T08:54:18;101808.63;;;5.61
65316;BMP280;51920;53.952;10.292;2024-03-08T08:56:45;101813.16;;;6.39
65316;BMP280;51920;53.952;10.292;2024-03-08T08:59:13;101814.59;;;6.93
65316;BMP280;51920;53.952;10.292;2024-03-08T09:01:40;101818.06;;;7.74
65316;BMP280;51920;53.952;10.292;2024-03-08T09:04:07;101808.16;;;7.99
65316;BMP280;51920;53.952;10.292;2024-03-08T09:06:35;101811.97;;;7.35
65316;BMP280;51920;53.952;10.292;2024-03-08T09:09:02;101801.53;;;8.29
65316;BMP280;51920;53.952;10.292;2024-03-08T09:11:31;101814.28;;;7.45
65316;BMP280;51920;53.952;10.292;2024-03-08T09:13:58;101803.94;;;8.10
65316;BMP280;51920;53.952;10.292;2024-03-08T09:16:25;101803.25;;;9.08
65316;BMP280;51920;53.952;10.292;2024-03-08T09:18:53;101794.47;;;8.49
65316;BMP280;51920;53.952;10.292;2024-03-08T09:21:20;101795.00;;;9.29
65316;BMP280;51920;53.952;10.292;2024-03-08T09:23:47;101798.03;;;9.40
65316;BMP280;51920;53.952;10.292;2024-03-08T09:26:14;101798.72;;;9.93
65316;BMP280;51920;53.952;10.292;2024-03-08T09:28:44;101794.88;;;9.94
65316;BMP280;51920;53.952;10.292;2024-03-08T09:31:12;101794.13;;;8.51
65316;BMP280;51920;53.952;10.292;2024-03-08T09:33:39;101790.44;;;9.45
65316;BMP280;51920;53.952;10.292;2024-03-08T09:36:06;101780.44;;;9.62
65316;BMP280;51920;53.952;10.292;2024-03-08T09:38:34;101781.09;;;10.31
65316;BMP280;51920;53.952;10.292;2024-03-08T09:41:01;101769.59;;;9.05
65316;BMP280;51920;53.952;10.292;2024-03-08T09:43:28;101771.28;;;8.98
65316;BMP280;51920;53.952;10.292;2024-03-08T09:45:56;101773.19;;;9.78
65316;BMP280;51920;53.952;10.292;2024-03-08T09:48:25;101775.97;;;10.10
65316;BMP280;51920;53.952;10.292;2024-03-08T09:50:52;101757.41;;;9.96
65316;BMP280;51920;53.952;10.292;2024-03-08T09:53:20;101758.34;;;9.60
65316;BMP280;51920;53.952;10.292;2024-03-08T09:55:49;101758.34;;;9.60
65316;BMP280;51920;53.952;10.292;2024-03-08T09:58:16;101754.03;;;9.99
65316;BMP280;51920;53.952;10.292;2024-03-08T10:00:47;101754.97;;;9.35
65316;BMP280;51920;53.952;10.292;2024-03-08T10:03:14;101754.25;;;9.50
65316;BMP280;51920;53.952;10.292;2024-03-08T10:05:44;101750.56;;;10.66
65316;BMP280;51920;53.952;10.292;2024-03-08T10:08:11;101752.19;;;10.35
65316;BMP280;51920;53.952;10.292;2024-03-08T10:10:38;101741.34;;;10.03
65316;BMP280;51920;53.952;10.292;2024-03-08T10:13:09;101742.56;;;9.46
65316;BMP280;51920;53.952;10.292;2024-03-08T10:15:36;101730.59;;;10.23
65316;BMP280;51920;53.952;10.292;2024-03-08T10:18:06;101734.09;;;10.07
65316;BMP280;51920;53.952;10.292;2024-03-08T10:20:33;101726.16;;;9.55
65316;BMP280;51920;53.952;10.292;2024-03-08T10:23:01;101723.75;;;9.09
65316;BMP280;51920;53.952;10.292;2024-03-08T10:25:32;101717.06;;;10.74
65316;BMP280;51920;53.952;10.292;2024-03-08T10:28:00;101721.91;;;9.13
65316;BMP280;51920;53.952;10.292;2024-03-08T10:30:30;101720.22;;;8.68
65316;BMP280;51920;53.952;10.292;2024-03-08T10:32:58;101717.72;;;8.87
65316;BMP280;51920;53.952;10.292;2024-03-08T10:35:25;101714.13;;;8.59
65316;BMP280;51920;53.952;10.292;2024-03-08T10:37:56;101705.53;;;7.95
65316;BMP280;51920;53.952;10.292;2024-03-08T10:40:27;101698.03;;;8.25
65316;BMP280;51920;53.952;10.292;2024-03-08T10:42:59;101707.25;;;8.37
65316;BMP280;51920;53.952;10.292;2024-03-08T10:45:29;101701.81;;;8.12
65316;BMP280;51920;53.952;10.292;2024-03-08T10:48:08;101695.63;;;7.33
65316;BMP280;51920;53.952;10.292;2024-03-08T10:50:37;101690.47;;;7.61
65316;BMP280;51920;53.952;10.292;2024-03-08T10:53:06;101681.03;;;8.37
65316;BMP280;51920;53.952;10.292;2024-03-08T10:55:33;101681.13;;;7.58
65316;BMP280;51920;53.952;10.292;2024-03-08T10:58:00;101677.41;;;7.96
65316;BMP280;51920;53.952;10.292;2024-03-08T11:00:27;101675.50;;;8.21
65316;BMP280;51920;53.952;10.292;2024-03-08T11:02:54;101674.78;;;7.87
65316;BMP280;51920;53.952;10.292;2024-03-08T11:05:40;101676.84;;;7.57
65316;BMP280;51920;53.952;10.292;2024-03-08T11:13:37;101655.34;;;7.15
65316;BMP280;51920;53.952;10.292;2024-03-08T11:16:08;101648.44;;;7.05
65316;BMP280;51920;53.952;10.292;2024-03-08T11:18:37;101651.97;;;6.76
65316;BMP280;51920;53.952;10.292;2024-03-08T11:21:05;101652.31;;;6.45
65316;BMP280;51920;53.952;10.292;2024-03-08T11:23:39;101641.94;;;6.56
65316;BMP280;51920;53.952;10.292;2024-03-08T11:26:24;101641.69;;;6.49
65316;BMP280;51920;53.952;10.292;2024-03-08T11:28:51;101640.81;;;6.86
65316;BMP280;51920;53.952;10.292;2024-03-08T11:31:24;101627.53;;;6.81
65316;BMP280;51920;53.952;10.292;2024-03-08T11:33:53;101626.63;;;7.19
65316;BMP280;51920;53.952;10.292;2024-03-08T11:36:22;101618.13;;;7.30
65316;BMP280;51920;53.952;10.292;2024-03-08T11:38:50;101613.72;;;7.04
65316;BMP280;51920;53.952;10.292;2024-03-08T11:41:21;101611.31;;;7.11
65316;BMP280;51920;53.952;10.292;2024-03-08T11:43:50;101612.91;;;6.91
65316;BMP280;51920;53.952;10.292;2024-03-08T11:46:27;101606.09;;;7.27
65316;BMP280;51920;53.952;10.292;2024-03-08T11:48:54;101604.91;;;7.37
65316;BMP280;51920;53.952;10.292;2024-03-08T11:51:23;101598.59;;;7.33
65316;BMP280;51920;53.952;10.292;2024-03-08T11:53:50;101594.31;;;6.98
65316;BMP280;51920;53.952;10.292;2024-03-08T11:56:17;101589.06;;;7.02
65316;BMP280;51920;53.952;10.292;2024-03-08T11:58:55;101590.09;;;6.89
65316;BMP280;51920;53.952;10.292;2024-03-08T12:01:25;101583.19;;;6.58
65316;BMP280;51920;53.952;10.292;2024-03-08T12:03:56;101585.97;;;6.91
65316;BMP280;51920;53.952;10.292;2024-03-08T12:06:27;101580.63;;;6.82
65316;BMP280;51920;53.952;10.292;2024-03-08T12:09:02;101579.81;;;6.91
65316;BMP280;51920;53.952;10.292;2024-03-08T12:11:29;101568.88;;;6.66
65316;BMP280;51920;53.952;10.292;2024-03-08T12:13:58;101566.91;;;6.54
65316;BMP280;51920;53.952;10.292;2024-03-08T12:16:25;101570.13;;;6.47
65316;BMP280;51920;53.952;10.292;2024-03-08T12:18:52;101558.66;;;6.59
65316;BMP280;51920;53.952;10.292;2024-03-08T12:21:20;101555.56;;;6.70
65316;BMP280;51920;53.952;10.292;2024-03-08T12:24:02;101565.19;;;6.92
65316;BMP280;51920;53.952;10.292;2024-03-08T12:26:29;101550.56;;;6.80
65316;BMP280;51920;53.952;10.292;2024-03-08T12:29:19;101542.53;;;6.93
65316;BMP280;51920;53.952;10.292;2024-03-08T12:31:58;101550.03;;;6.66
65316;BMP280;51920;53.952;10.292;2024-03-08T12:34:25;101540.72;;;6.63
65316;BMP280;51920;53.952;10.292;2024-03-08T12:36:54;101533.47;;;6.64
65316;BMP280;51920;53.952;10.292;2024-03-08T12:39:22;101532.28;;;6.65
65316;BMP280;51920;53.952;10.292;2024-03-08T12:41:54;101521.28;;;6.58
65316;BMP280;51920;53.952;10.292;2024-03-08T12:44:21;101520.00;;;6.64
65316;BMP280;51920;53.952;10.292;2024-03-08T12:46:48;101510.00;;;6.64
65316;BMP280;51920;53.952;10.292;2024-03-08T12:49:19;101515.72;;;6.63
65316;BMP280;51920;53.952;10.292;2024-03-08T12:51:49;101503.47;;;6.65
65316;BMP280;51920;53.952;10.292;2024-03-08T12:54:16;101503.00;;;6.42
65316;BMP280;51920;53.952;10.292;2024-03-08T12:56:43;101498.34;;;6.73
65316;BMP280;51920;53.952;10.292;2024-03-08T12:59:10;101494.41;;;6.70
65316;BMP280;51920;53.952;10.292;2024-03-08T13:01:37;101490.81;;;6.66
65316;BMP280;51920;53.952;10.292;2024-03-08T13:04:04;101480.97;;;6.70
65316;BMP280;51920;53.952;10.292;2024-03-08T13:06:33;101485.03;;;6.76
65316;BMP280;51920;53.952;10.292;2024-03-08T13:09:00;101488.13;;;6.87
65316;BMP280;51920;53.952;10.292;2024-03-08T13:11:32;101480.44;;;6.77
65316;BMP280;51920;53.952;10.292;2024-03-08T13:14:04;101470.69;;;6.84
65316;BMP280;51920;53.952;10.292;2024-03-08T13:16:32;101470.03;;;6.88
65316;BMP280;51920;53.952;10.292;2024-03-08T13:19:01;101472.41;;;6.89
65316;BMP280;51920;53.952;10.292;2024-03-08T13:21:28;101469.78;;;6.80
65316;BMP280;51920;53.952;10.292;2024-03-08T13:23:57;101469.13;;;6.96
65316;BMP280;51920;53.952;10.292;2024-03-08T13:26:26;101459.91;;;6.84
65316;BMP280;51920;53.952;10.292;2024-03-08T13:28:59;101450.41;;;6.66
65316;BMP280;51920;53.952;10.292;2024-03-08T13:31:26;101451.47;;;6.53
65316;BMP280;51920;53.952;10.292;2024-03-08T13:33:54;101447.72;;;6.66
65316;BMP280;51920;53.952;10.292;2024-03-08T13:36:25;101453.13;;;6.66
65316;BMP280;51920;53.952;10.292;2024-03-08T13:38:56;101441.88;;;6.52
65316;BMP280;51920;53.952;10.292;2024-03-08T13:41:26;101435.88;;;6.25
65316;BMP280;51920;53.952;10.292;2024-03-08T13:43:54;101437.25;;;6.31
65316;BMP280;51920;53.952;10.292;2024-03-08T13:46:22;101436.22;;;6.44
65316;BMP280;51920;53.952;10.292;2024-03-08T13:48:51;101432.00;;;6.35
65316;BMP280;51920;53.952;10.292;2024-03-08T13:51:27;101434.16;;;6.41
65316;BMP280;51920;53.952;10.292;2024-03-08T13:53:54;101442.00;;;6.34
65316;BMP280;51920;53.952;10.292;2024-03-08T13:56:21;101438.78;;;6.20
65316;BMP280;51920;53.952;10.292;2024-03-08T13:58:48;101419.56;;;6.09
65316;BMP280;51920;53.952;10.292;2024-03-08T14:01:16;101421.34;;;5.96
65316;BMP280;51920;53.952;10.292;2024-03-08T14:03:43;101420.34;;;6.10
65316;BMP280;51920;53.952;10.292;2024-03-08T14:06:10;101406.44;;;6.08
65316;BMP280;51920;53.952;10.292;2024-03-08T14:08:47;101416.66;;;5.93